sensor_id;sensor_type;location;lat;lon;timestamp;P1;durP1;ratioP1;P2;durP2;ratioP2
74245;SDS011;62601;51.044;13.788;2023-11-19T00:02:15;12.10;;;8.95;;
74245;SDS011;62601;51.044;13.788;2023-11-19T00:04:39;9.27;;;8.27;;
74245;SDS011;62601;51.044;13.788;2023-11-19T00:06:59;11.15;;;8.70;;
74245;SDS011;62601;51.044;13.788;2023-11-19T00:09:19;13.18;;;9.63;;
74245;SDS011;62601;51.044;13.788;2023-11-19T00:11:39;10.48;;;8.70;;
74245;SDS011;62601;51.044;13.788;2023-11-19T00:13:59;11.38;;;8.40;;
74245;SDS011;62601;51.044;13.788;2023-11-19T00:16:19;12.10;;;8.77;;
74245;SDS011;62601;51.044;13.788;2023-11-19T00:18:39;11.85;;;8.75;;
74245;SDS011;62601;51.044;13.788;2023-11-19T00:20:59;11.27;;;9.07;;
74245;SDS011;62601;51.044;13.788;2023-11-19T00:23:19;11.27;;;8.95;;
74245;SDS011;62601;51.044;13.788;2023-11-19T00:25:40;13.30;;;9.27;;
74245;SDS011;62601;51.044;13.788;2023-11-19T00:28:00;13.55;;;10.63;;
74245;SDS011;62601;51.044;13.788;2023-11-19T00:30:20;12.40;;;9.60;;
74245;SDS011;62601;51.044;13.788;2023-11-19T00:32:40;13.85;;;10.00;;
74245;SDS011;62601;51.044;13.788;2023-11-19T00:35:00;14.30;;;9.63;;
74245;SDS011;62601;51.044;13.788;2023-11-19T00:37:21;12.30;;;9.65;;
74245;SDS011;62601;51.044;13.788;2023-11-19T00:39:44;10.85;;;9.60;;
74245;SDS011;62601;51.044;13.788;2023-11-19T00:42:04;12.13;;;9.90;;
74245;SDS011;62601;51.044;13.788;2023-11-19T00:44:24;12.10;;;9.15;;
74245;SDS011;62601;51.044;13.788;2023-11-19T00:46:44;15.32;;;9.02;;
74245;SDS011;62601;51.044;13.788;2023-11-19T00:49:04;13.00;;;9.35;;
74245;SDS011;62601;51.044;13.788;2023-11-19T00:51:24;10.70;;;8.32;;
74245;SDS011;62601;51.044;13.788;2023-11-19T00:53:44;10.68;;;8.05;;
74245;SDS011;62601;51.044;13.788;2023-11-19T00:56:05;11.65;;;8.82;;
74245;SDS011;62601;51.044;13.788;2023-11-19T00:58:25;10.75;;;7.63;;
74245;SDS011;62601;51.044;13.788;2023-11-19T01:00:45;11.77;;;8.45;;
74245;SDS011;62601;51.044;13.788;2023-11-19T01:03:05;8.93;;;8.02;;
74245;SDS011;62601;51.044;13.788;2023-11-19T01:05:25;9.65;;;7.82;;
74245;SDS011;62601;51.044;13.788;2023-11-19T01:07:45;11.20;;;8.68;;
74245;SDS011;62601;51.044;13.788;2023-11-19T01:10:05;10.43;;;8.57;;
74245;SDS011;62601;51.044;13.788;2023-11-19T01:12:26;10.75;;;8.45;;
74245;SDS011;62601;51.044;13.788;2023-11-19T01:14:46;10.02;;;7.47;;
74245;SDS011;62601;51.044;13.788;2023-11-19T01:17:06;10.93;;;8.18;;
74245;SDS011;62601;51.044;13.788;2023-11-19T01:19:26;8.82;;;6.90;;
74245;SDS011;62601;51.044;13.788;2023-11-19T01:21:46;9.60;;;8.00;;
74245;SDS011;62601;51.044;13.788;2023-11-19T01:24:06;8.90;;;7.43;;
74245;SDS011;62601;51.044;13.788;2023-11-19T01:26:26;7.70;;;6.90;;
74245;SDS011;62601;51.044;13.788;2023-11-19T01:28:46;9.90;;;7.38;;
74245;SDS011;62601;51.044;13.788;2023-11-19T01:31:07;9.38;;;6.88;;
74245;SDS011;62601;51.044;13.788;2023-11-19T01:33:27;7.45;;;6.35;;
74245;SDS011;62601;51.044;13.788;2023-11-19T01:35:47;8.15;;;7.07;;
74245;SDS011;62601;51.044;13.788;2023-11-19T01:38:07;9.95;;;7.25;;
74245;SDS011;62601;51.044;13.788;2023-11-19T01:40:27;9.00;;;6.70;;
74245;SDS011;62601;51.044;13.788;2023-11-19T01:42:47;6.68;;;5.70;;
74245;SDS011;62601;51.044;13.788;2023-11-19T01:45:07;7.43;;;6.05;;
74245;SDS011;62601;51.044;13.788;2023-11-19T01:47:28;6.40;;;5.65;;
74245;SDS011;62601;51.044;13.788;2023-11-19T01:49:49;7.82;;;5.95;;
74245;SDS011;62601;51.044;13.788;2023-11-19T01:52:10;7.95;;;5.43;;
74245;SDS011;62601;51.044;13.788;2023-11-19T01:54:30;7.38;;;5.50;;
74245;SDS011;62601;51.044;13.788;2023-11-19T01:56:50;6.95;;;5.78;;
74245;SDS011;62601;51.044;13.788;2023-11-19T01:59:12;6.78;;;5.07;;
74245;SDS011;62601;51.044;13.788;2023-11-19T02:01:33;6.18;;;5.40;;
74245;SDS011;62601;51.044;13.788;2023-11-19T02:03:54;5.28;;;4.78;;
74245;SDS011;62601;51.044;13.788;2023-11-19T02:06:14;5.43;;;4.55;;
74245;SDS011;62601;51.044;13.788;2023-11-19T02:08:34;7.80;;;5.28;;
74245;SDS011;62601;51.044;13.788;2023-11-19T02:10:54;5.38;;;4.32;;
74245;SDS011;62601;51.044;13.788;2023-11-19T02:13:14;5.32;;;4.47;;
74245;SDS011;62601;51.044;13.788;2023-11-19T02:15:35;5.63;;;5.05;;
74245;SDS011;62601;51.044;13.788;2023-11-19T02:17:55;7.45;;;4.65;;
74245;SDS011;62601;51.044;13.788;2023-11-19T02:20:15;4.70;;;3.67;;
74245;SDS011;62601;51.044;13.788;2023-11-19T02:22:35;9.88;;;4.22;;
74245;SDS011;62601;51.044;13.788;2023-11-19T02:24:59;4.40;;;3.90;;
74245;SDS011;62601;51.044;13.788;2023-11-19T02:27:23;6.95;;;4.00;;
74245;SDS011;62601;51.044;13.788;2023-11-19T02:29:45;4.50;;;3.97;;
74245;SDS011;62601;51.044;13.788;2023-11-19T02:32:05;4.10;;;3.70;;
74245;SDS011;62601;51.044;13.788;2023-11-19T02:34:25;4.35;;;3.70;;
74245;SDS011;62601;51.044;13.788;2023-11-19T02:36:46;4.70;;;3.58;;
74245;SDS011;62601;51.044;13.788;2023-11-19T02:39:06;3.88;;;3.30;;
74245;SDS011;62601;51.044;13.788;2023-11-19T02:41:26;3.40;;;3.00;;
74245;SDS011;62601;51.044;13.788;2023-11-19T02:43:46;3.10;;;2.80;;
74245;SDS011;62601;51.044;13.788;2023-11-19T02:46:06;4.13;;;3.00;;
74245;SDS011;62601;51.044;13.788;2023-11-19T02:48:26;3.78;;;2.90;;
74245;SDS011;62601;51.044;13.788;2023-11-19T02:50:46;4.50;;;3.15;;
74245;SDS011;62601;51.044;13.788;2023-11-19T02:53:06;3.60;;;3.08;;
74245;SDS011;62601;51.044;13.788;2023-11-19T02:55:26;3.22;;;2.92;;
74245;SDS011;62601;51.044;13.788;2023-11-19T02:57:47;3.00;;;2.58;;
74245;SDS011;62601;51.044;13.788;2023-11-19T03:00:07;3.92;;;2.67;;
74245;SDS011;62601;51.044;13.788;2023-11-19T03:02:27;3.55;;;3.25;;
74245;SDS011;62601;51.044;13.788;2023-11-19T03:04:47;3.33;;;3.00;;
74245;SDS011;62601;51.044;13.788;2023-11-19T03:07:07;4.50;;;2.55;;
74245;SDS011;62601;51.044;13.788;2023-11-19T03:09:27;3.22;;;2.85;;
74245;SDS011;62601;51.044;13.788;2023-11-19T03:11:47;3.22;;;2.92;;
74245;SDS011;62601;51.044;13.788;2023-11-19T03:14:07;4.03;;;3.10;;
74245;SDS011;62601;51.044;13.788;2023-11-19T03:16:28;3.90;;;2.88;;
74245;SDS011;62601;51.044;13.788;2023-11-19T03:18:48;3.88;;;3.25;;
74245;SDS011;62601;51.044;13.788;2023-11-19T03:21:08;3.03;;;2.70;;
74245;SDS011;62601;51.044;13.788;2023-11-19T03:23:28;3.08;;;2.60;;
74245;SDS011;62601;51.044;13.788;2023-11-19T03:25:48;3.08;;;2.38;;
74245;SDS011;62601;51.044;13.788;2023-11-19T03:28:08;2.65;;;2.45;;
74245;SDS011;62601;51.044;13.788;2023-11-19T03:30:29;2.60;;;2.30;;
74245;SDS011;62601;51.044;13.788;2023-11-19T03:32:49;3.88;;;2.53;;
74245;SDS011;62601;51.044;13.788;2023-11-19T03:35:09;2.30;;;2.10;;
74245;SDS011;62601;51.044;13.788;2023-11-19T03:37:29;2.53;;;2.33;;
74245;SDS011;62601;51.044;13.788;2023-11-19T03:39:49;2.90;;;2.20;;
74245;SDS011;62601;51.044;13.788;2023-11-19T03:42:12;3.13;;;2.70;;
74245;SDS011;62601;51.044;13.788;2023-11-19T03:44:32;3.75;;;2.13;;
74245;SDS011;62601;51.044;13.788;2023-11-19T03:46:53;3.92;;;2.58;;
74245;SDS011;62601;51.044;13.788;2023-11-19T03:49:13;3.40;;;3.10;;
74245;SDS011;62601;51.044;13.788;2023-11-19T03:51:33;3.42;;;2.90;;
74245;SDS011;62601;51.044;13.788;2023-11-19T03:53:53;2.25;;;2.05;;
74245;SDS011;62601;51.044;13.788;2023-11-19T03:56:13;4.18;;;3.00;;
74245;SDS011;62601;51.044;13.788;2023-11-19T03:58:33;3.20;;;2.90;;
74245;SDS011;62601;51.044;13.788;2023-11-19T04:00:53;3.83;;;3.15;;
74245;SDS011;62601;51.044;13.788;2023-11-19T04:03:13;3.20;;;2.85;;
74245;SDS011;62601;51.044;13.788;2023-11-19T04:05:33;3.63;;;3.13;;
74245;SDS011;62601;51.044;13.788;2023-11-19T04:07:54;3.83;;;3.20;;
74245;SDS011;62601;51.044;13.788;2023-11-19T04:10:14;3.42;;;3.03;;
74245;SDS011;62601;51.044;13.788;2023-11-19T04:12:34;4.10;;;3.20;;
74245;SDS011;62601;51.044;13.788;2023-11-19T04:14:55;4.00;;;3.45;;
74245;SDS011;62601;51.044;13.788;2023-11-19T04:17:15;3.70;;;3.40;;
74245;SDS011;62601;51.044;13.788;2023-11-19T04:19:35;4.10;;;3.40;;
74245;SDS011;62601;51.044;13.788;2023-11-19T04:21:55;4.15;;;3.75;;
74245;SDS011;62601;51.044;13.788;2023-11-19T04:24:15;6.00;;;4.40;;
74245;SDS011;62601;51.044;13.788;2023-11-19T04:26:35;4.22;;;3.83;;
74245;SDS011;62601;51.044;13.788;2023-11-19T04:28:55;5.43;;;4.15;;
74245;SDS011;62601;51.044;13.788;2023-11-19T04:31:15;4.32;;;3.92;;
74245;SDS011;62601;51.044;13.788;2023-11-19T04:33:36;3.80;;;3.35;;
74245;SDS011;62601;51.044;13.788;2023-11-19T04:35:56;3.97;;;3.50;;
74245;SDS011;62601;51.044;13.788;2023-11-19T04:38:16;3.45;;;3.15;;
74245;SDS011;62601;51.044;13.788;2023-11-19T04:40:36;4.80;;;4.07;;
74245;SDS011;62601;51.044;13.788;2023-11-19T04:42:56;5.47;;;4.30;;
74245;SDS011;62601;51.044;13.788;2023-11-19T04:45:16;5.07;;;3.45;;
74245;SDS011;62601;51.044;13.788;2023-11-19T04:47:36;3.50;;;3.20;;
74245;SDS011;62601;51.044;13.788;2023-11-19T04:49:56;4.00;;;3.35;;
74245;SDS011;62601;51.044;13.788;2023-11-19T04:52:17;3.72;;;3.40;;
74245;SDS011;62601;51.044;13.788;2023-11-19T04:54:43;4.50;;;4.10;;
74245;SDS011;62601;51.044;13.788;2023-11-19T04:57:03;4.63;;;3.50;;
74245;SDS011;62601;51.044;13.788;2023-11-19T04:59:23;3.75;;;3.35;;
74245;SDS011;62601;51.044;13.788;2023-11-19T05:01:46;3.90;;;3.50;;
74245;SDS011;62601;51.044;13.788;2023-11-19T05:04:07;3.85;;;3.45;;
74245;SDS011;62601;51.044;13.788;2023-11-19T05:06:27;4.78;;;3.60;;
74245;SDS011;62601;51.044;13.788;2023-11-19T05:08:48;4.25;;;3.72;;
74245;SDS011;62601;51.044;13.788;2023-11-19T05:11:08;4.15;;;3.75;;
74245;SDS011;62601;51.044;13.788;2023-11-19T05:13:28;3.97;;;3.67;;
74245;SDS011;62601;51.044;13.788;2023-11-19T05:15:48;4.07;;;3.72;;
74245;SDS011;62601;51.044;13.788;2023-11-19T05:18:08;3.70;;;3.10;;
74245;SDS011;62601;51.044;13.788;2023-11-19T05:20:28;5.00;;;3.58;;
74245;SDS011;62601;51.044;13.788;2023-11-19T05:22:48;4.88;;;3.67;;
74245;SDS011;62601;51.044;13.788;2023-11-19T05:25:09;5.55;;;4.18;;
74245;SDS011;62601;51.044;13.788;2023-11-19T05:27:29;4.32;;;3.88;;
74245;SDS011;62601;51.044;13.788;2023-11-19T05:29:49;5.47;;;3.80;;
74245;SDS011;62601;51.044;13.788;2023-11-19T05:32:09;4.72;;;3.88;;
74245;SDS011;62601;51.044;13.788;2023-11-19T05:34:29;4.63;;;4.03;;
74245;SDS011;62601;51.044;13.788;2023-11-19T05:36:49;4.40;;;4.00;;
74245;SDS011;62601;51.044;13.788;2023-11-19T05:39:10;5.50;;;4.55;;
74245;SDS011;62601;51.044;13.788;2023-11-19T05:41:30;4.88;;;4.25;;
74245;SDS011;62601;51.044;13.788;2023-11-19T05:43:50;6.00;;;4.38;;
74245;SDS011;62601;51.044;13.788;2023-11-19T05:46:10;5.78;;;4.72;;
74245;SDS011;62601;51.044;13.788;2023-11-19T05:48:30;6.05;;;4.65;;
74245;SDS011;62601;51.044;13.788;2023-11-19T05:50:50;5.60;;;5.03;;
74245;SDS011;62601;51.044;13.788;2023-11-19T05:53:10;6.65;;;4.93;;
74245;SDS011;62601;51.044;13.788;2023-11-19T05:55:30;6.28;;;5.00;;
74245;SDS011;62601;51.044;13.788;2023-11-19T05:57:53;5.95;;;5.45;;
74245;SDS011;62601;51.044;13.788;2023-11-19T06:00:14;7.00;;;4.95;;
74245;SDS011;62601;51.044;13.788;2023-11-19T06:02:34;8.68;;;5.43;;
74245;SDS011;62601;51.044;13.788;2023-11-19T06:04:54;6.95;;;5.18;;
74245;SDS011;62601;51.044;13.788;2023-11-19T06:07:14;5.82;;;5.22;;
74245;SDS011;62601;51.044;13.788;2023-11-19T06:09:34;5.35;;;4.43;;
74245;SDS011;62601;51.044;13.788;2023-11-19T06:11:54;5.60;;;5.10;;
74245;SDS011;62601;51.044;13.788;2023-11-19T06:14:14;6.65;;;5.30;;
74245;SDS011;62601;51.044;13.788;2023-11-19T06:16:34;4.70;;;4.20;;
74245;SDS011;62601;51.044;13.788;2023-11-19T06:18:54;4.60;;;4.10;;
74245;SDS011;62601;51.044;13.788;2023-11-19T06:21:15;5.05;;;4.55;;
74245;SDS011;62601;51.044;13.788;2023-11-19T06:23:35;5.38;;;4.60;;
74245;SDS011;62601;51.044;13.788;2023-11-19T06:25:55;5.15;;;4.65;;
74245;SDS011;62601;51.044;13.788;2023-11-19T06:28:15;5.70;;;4.30;;
74245;SDS011;62601;51.044;13.788;2023-11-19T06:30:38;7.28;;;4.63;;
74245;SDS011;62601;51.044;13.788;2023-11-19T06:32:58;5.57;;;4.43;;
74245;SDS011;62601;51.044;13.788;2023-11-19T06:35:18;5.38;;;4.65;;
74245;SDS011;62601;51.044;13.788;2023-11-19T06:37:39;6.35;;;4.38;;
74245;SDS011;62601;51.044;13.788;2023-11-19T06:39:59;6.57;;;5.50;;
74245;SDS011;62601;51.044;13.788;2023-11-19T06:42:19;5.80;;;4.65;;
74245;SDS011;62601;51.044;13.788;2023-11-19T06:44:39;5.22;;;4.32;;
74245;SDS011;62601;51.044;13.788;2023-11-19T06:46:59;5.00;;;2.97;;
74245;SDS011;62601;51.044;13.788;2023-11-19T06:49:20;5.80;;;3.80;;
74245;SDS011;62601;51.044;13.788;2023-11-19T06:51:43;3.97;;;3.58;;
74245;SDS011;62601;51.044;13.788;2023-11-19T06:54:03;5.70;;;3.60;;
74245;SDS011;62601;51.044;13.788;2023-11-19T06:56:23;4.15;;;3.53;;
74245;SDS011;62601;51.044;13.788;2023-11-19T06:58:44;3.05;;;2.72;;
74245;SDS011;62601;51.044;13.788;2023-11-19T07:01:06;4.07;;;3.33;;
74245;SDS011;62601;51.044;13.788;2023-11-19T07:03:26;3.40;;;3.10;;
74245;SDS011;62601;51.044;13.788;2023-11-19T07:05:46;3.25;;;2.80;;
74245;SDS011;62601;51.044;13.788;2023-11-19T07:08:06;4.85;;;2.90;;
74245;SDS011;62601;51.044;13.788;2023-11-19T07:10:26;3.75;;;3.35;;
74245;SDS011;62601;51.044;13.788;2023-11-19T07:12:47;3.88;;;2.80;;
74245;SDS011;62601;51.044;13.788;2023-11-19T07:15:07;3.42;;;2.75;;
74245;SDS011;62601;51.044;13.788;2023-11-19T07:17:27;3.45;;;2.80;;
74245;SDS011;62601;51.044;13.788;2023-11-19T07:19:49;5.82;;;4.55;;
74245;SDS011;62601;51.044;13.788;2023-11-19T07:22:09;3.83;;;3.22;;
74245;SDS011;62601;51.044;13.788;2023-11-19T07:24:29;2.45;;;2.25;;
74245;SDS011;62601;51.044;13.788;2023-11-19T07:26:49;2.30;;;2.10;;
74245;SDS011;62601;51.044;13.788;2023-11-19T07:29:09;4.07;;;3.03;;
74245;SDS011;62601;51.044;13.788;2023-11-19T07:31:29;3.10;;;2.90;;
74245;SDS011;62601;51.044;13.788;2023-11-19T07:33:50;2.78;;;2.55;;
74245;SDS011;62601;51.044;13.788;2023-11-19T07:36:10;2.50;;;2.30;;
74245;SDS011;62601;51.044;13.788;2023-11-19T07:38:30;2.30;;;2.15;;
74245;SDS011;62601;51.044;13.788;2023-11-19T07:40:50;2.97;;;2.78;;
74245;SDS011;62601;51.044;13.788;2023-11-19T07:43:10;2.70;;;2.50;;
74245;SDS011;62601;51.044;13.788;2023-11-19T07:45:30;2.63;;;2.20;;
74245;SDS011;62601;51.044;13.788;2023-11-19T07:47:50;2.72;;;2.47;;
74245;SDS011;62601;51.044;13.788;2023-11-19T07:50:10;2.00;;;1.88;;
74245;SDS011;62601;51.044;13.788;2023-11-19T07:52:31;2.25;;;2.05;;
74245;SDS011;62601;51.044;13.788;2023-11-19T07:54:51;2.60;;;2.40;;
74245;SDS011;62601;51.044;13.788;2023-11-19T07:57:11;2.45;;;2.25;;
74245;SDS011;62601;51.044;13.788;2023-11-19T07:59:31;2.63;;;2.40;;
74245;SDS011;62601;51.044;13.788;2023-11-19T08:01:51;5.20;;;2.40;;
74245;SDS011;62601;51.044;13.788;2023-11-19T08:04:11;2.92;;;2.67;;
74245;SDS011;62601;51.044;13.788;2023-11-19T08:06:31;2.22;;;2.03;;
74245;SDS011;62601;51.044;13.788;2023-11-19T08:08:51;2.35;;;2.15;;
74245;SDS011;62601;51.044;13.788;2023-11-19T08:11:12;2.60;;;2.40;;
74245;SDS011;62601;51.044;13.788;2023-11-19T08:13:32;3.50;;;3.20;;
74245;SDS011;62601;51.044;13.788;2023-11-19T08:15:52;3.30;;;2.75;;
74245;SDS011;62601;51.044;13.788;2023-11-19T08:18:12;4.20;;;3.20;;
74245;SDS011;62601;51.044;13.788;2023-11-19T08:20:33;3.08;;;2.70;;
74245;SDS011;62601;51.044;13.788;2023-11-19T08:22:53;3.03;;;2.65;;
74245;SDS011;62601;51.044;13.788;2023-11-19T08:25:13;2.83;;;2.63;;
74245;SDS011;62601;51.044;13.788;2023-11-19T08:27:33;3.22;;;2.63;;
74245;SDS011;62601;51.044;13.788;2023-11-19T08:29:54;2.80;;;2.58;;
74245;SDS011;62601;51.044;13.788;2023-11-19T08:32:14;3.20;;;2.90;;
74245;SDS011;62601;51.044;13.788;2023-11-19T08:34:34;3.33;;;2.90;;
74245;SDS011;62601;51.044;13.788;2023-11-19T08:36:57;4.10;;;2.90;;
74245;SDS011;62601;51.044;13.788;2023-11-19T08:39:17;4.50;;;2.47;;
74245;SDS011;62601;51.044;13.788;2023-11-19T08:41:37;3.50;;;3.10;;
74245;SDS011;62601;51.044;13.788;2023-11-19T08:43:57;2.50;;;2.30;;
74245;SDS011;62601;51.044;13.788;2023-11-19T08:46:17;4.32;;;3.13;;
74245;SDS011;62601;51.044;13.788;2023-11-19T08:48:38;3.45;;;3.15;;
74245;SDS011;62601;51.044;13.788;2023-11-19T08:50:58;2.85;;;2.65;;
74245;SDS011;62601;51.044;13.788;2023-11-19T08:53:18;4.75;;;3.40;;
74245;SDS011;62601;51.044;13.788;2023-11-19T08:55:38;4.72;;;3.33;;
74245;SDS011;62601;51.044;13.788;2023-11-19T08:57:58;4.70;;;3.80;;
74245;SDS011;62601;51.044;13.788;2023-11-19T09:00:18;20.50;;;13.55;;
74245;SDS011;62601;51.044;13.788;2023-11-19T09:02:38;8.18;;;5.90;;
74245;SDS011;62601;51.044;13.788;2023-11-19T09:04:58;3.47;;;2.95;;
74245;SDS011;62601;51.044;13.788;2023-11-19T09:07:18;3.00;;;2.70;;
74245;SDS011;62601;51.044;13.788;2023-11-19T09:09:39;3.03;;;2.72;;
74245;SDS011;62601;51.044;13.788;2023-11-19T09:11:59;3.00;;;2.70;;
74245;SDS011;62601;51.044;13.788;2023-11-19T09:14:19;3.10;;;2.70;;
74245;SDS011;62601;51.044;13.788;2023-11-19T09:16:39;3.10;;;2.80;;
74245;SDS011;62601;51.044;13.788;2023-11-19T09:18:59;4.38;;;3.33;;
74245;SDS011;62601;51.044;13.788;2023-11-19T09:21:19;4.10;;;3.45;;
74245;SDS011;62601;51.044;13.788;2023-11-19T09:23:39;5.28;;;3.75;;
74245;SDS011;62601;51.044;13.788;2023-11-19T09:26:00;6.40;;;3.35;;
74245;SDS011;62601;51.044;13.788;2023-11-19T09:28:23;3.97;;;3.55;;
74245;SDS011;62601;51.044;13.788;2023-11-19T09:30:43;4.38;;;3.72;;
74245;SDS011;62601;51.044;13.788;2023-11-19T09:33:03;5.80;;;4.45;;
74245;SDS011;62601;51.044;13.788;2023-11-19T09:35:23;4.03;;;3.63;;
74245;SDS011;62601;51.044;13.788;2023-11-19T09:37:43;5.10;;;3.40;;
74245;SDS011;62601;51.044;13.788;2023-11-19T09:40:03;3.47;;;3.17;;
74245;SDS011;62601;51.044;13.788;2023-11-19T09:42:24;3.70;;;3.28;;
74245;SDS011;62601;51.044;13.788;2023-11-19T09:44:44;3.45;;;3.17;;
74245;SDS011;62601;51.044;13.788;2023-11-19T09:47:05;5.22;;;3.42;;
74245;SDS011;62601;51.044;13.788;2023-11-19T09:49:26;6.65;;;4.70;;
74245;SDS011;62601;51.044;13.788;2023-11-19T09:51:47;11.93;;;9.35;;
74245;SDS011;62601;51.044;13.788;2023-11-19T09:54:07;18.70;;;14.20;;
74245;SDS011;62601;51.044;13.788;2023-11-19T09:56:27;17.52;;;13.95;;
74245;SDS011;62601;51.044;13.788;2023-11-19T09:58:48;9.13;;;6.82;;
74245;SDS011;62601;51.044;13.788;2023-11-19T10:01:08;7.65;;;5.20;;
74245;SDS011;62601;51.044;13.788;2023-11-19T10:03:32;4.22;;;3.83;;
74245;SDS011;62601;51.044;13.788;2023-11-19T10:05:56;3.30;;;3.00;;
74245;SDS011;62601;51.044;13.788;2023-11-19T10:08:17;3.10;;;2.10;;
74245;SDS011;62601;51.044;13.788;2023-11-19T10:10:37;2.30;;;1.20;;
74245;SDS011;62601;51.044;13.788;2023-11-19T10:12:57;1.80;;;1.17;;
74245;SDS011;62601;51.044;13.788;2023-11-19T10:15:20;1.83;;;0.90;;
74245;SDS011;62601;51.044;13.788;2023-11-19T10:17:40;2.53;;;0.90;;
74245;SDS011;62601;51.044;13.788;2023-11-19T10:20:01;2.45;;;0.80;;
74245;SDS011;62601;51.044;13.788;2023-11-19T10:22:22;1.85;;;0.77;;
74245;SDS011;62601;51.044;13.788;2023-11-19T10:24:42;3.05;;;0.90;;
74245;SDS011;62601;51.044;13.788;2023-11-19T10:27:02;4.60;;;1.13;;
74245;SDS011;62601;51.044;13.788;2023-11-19T10:29:23;2.10;;;1.48;;
74245;SDS011;62601;51.044;13.788;2023-11-19T10:31:50;0.60;;;0.60;;
74245;SDS011;62601;51.044;13.788;2023-11-19T10:34:23;5.35;;;1.05;;
74245;SDS011;62601;51.044;13.788;2023-11-19T10:36:44;1.98;;;1.00;;
74245;SDS011;62601;51.044;13.788;2023-11-19T10:39:04;4.07;;;1.15;;
74245;SDS011;62601;51.044;13.788;2023-11-19T10:41:28;2.60;;;1.08;;
74245;SDS011;62601;51.044;13.788;2023-11-19T10:43:48;1.25;;;0.82;;
74245;SDS011;62601;51.044;13.788;2023-11-19T10:46:13;3.25;;;1.02;;
74245;SDS011;62601;51.044;13.788;2023-11-19T10:48:33;2.05;;;1.08;;
74245;SDS011;62601;51.044;13.788;2023-11-19T10:50:53;5.05;;;3.88;;
74245;SDS011;62601;51.044;13.788;2023-11-19T10:53:13;1.20;;;0.90;;
74245;SDS011;62601;51.044;13.788;2023-11-19T10:55:34;3.47;;;1.35;;
74245;SDS011;62601;51.044;13.788;2023-11-19T10:57:58;1.33;;;1.05;;
74245;SDS011;62601;51.044;13.788;2023-11-19T11:00:18;1.30;;;1.20;;
74245;SDS011;62601;51.044;13.788;2023-11-19T11:02:40;1.75;;;0.75;;
74245;SDS011;62601;51.044;13.788;2023-11-19T11:05:01;1.67;;;1.10;;
74245;SDS011;62601;51.044;13.788;2023-11-19T11:07:21;2.03;;;0.80;;
74245;SDS011;62601;51.044;13.788;2023-11-19T11:09:41;2.78;;;1.10;;
74245;SDS011;62601;51.044;13.788;2023-11-19T11:12:02;1.50;;;1.20;;
74245;SDS011;62601;51.044;13.788;2023-11-19T11:14:23;2.30;;;1.88;;
74245;SDS011;62601;51.044;13.788;2023-11-19T11:16:44;2.85;;;0.90;;
74245;SDS011;62601;51.044;13.788;2023-11-19T11:19:06;1.02;;;0.90;;
74245;SDS011;62601;51.044;13.788;2023-11-19T11:21:26;1.00;;;0.80;;
74245;SDS011;62601;51.044;13.788;2023-11-19T11:26:15;2.15;;;1.30;;
74245;SDS011;62601;51.044;13.788;2023-11-19T11:28:52;1.80;;;0.95;;
74245;SDS011;62601;51.044;13.788;2023-11-19T11:36:53;3.30;;;0.90;;
74245;SDS011;62601;51.044;13.788;2023-11-19T11:39:14;4.68;;;1.25;;
74245;SDS011;62601;51.044;13.788;2023-11-19T11:41:35;3.05;;;0.98;;
74245;SDS011;62601;51.044;13.788;2023-11-19T11:43:55;2.33;;;1.20;;
74245;SDS011;62601;51.044;13.788;2023-11-19T11:48:51;1.35;;;0.98;;
74245;SDS011;62601;51.044;13.788;2023-11-19T11:51:11;6.30;;;1.13;;
74245;SDS011;62601;51.044;13.788;2023-11-19T11:53:32;1.25;;;1.00;;
74245;SDS011;62601;51.044;13.788;2023-11-19T11:55:55;3.45;;;1.20;;
74245;SDS011;62601;51.044;13.788;2023-11-19T11:58:18;3.58;;;1.45;;
74245;SDS011;62601;51.044;13.788;2023-11-19T12:00:39;1.75;;;1.10;;
74245;SDS011;62601;51.044;13.788;2023-11-19T12:03:00;4.95;;;1.10;;
74245;SDS011;62601;51.044;13.788;2023-11-19T12:05:20;4.50;;;1.80;;
74245;SDS011;62601;51.044;13.788;2023-11-19T12:07:41;6.35;;;1.88;;
74245;SDS011;62601;51.044;13.788;2023-11-19T12:10:08;6.00;;;1.35;;
74245;SDS011;62601;51.044;13.788;2023-11-19T12:12:29;2.67;;;1.05;;
74245;SDS011;62601;51.044;13.788;2023-11-19T12:14:59;3.83;;;1.42;;
74245;SDS011;62601;51.044;13.788;2023-11-19T12:19:52;3.90;;;1.00;;
74245;SDS011;62601;51.044;13.788;2023-11-19T12:22:13;1.52;;;1.35;;
74245;SDS011;62601;51.044;13.788;2023-11-19T12:24:34;2.65;;;1.23;;
74245;SDS011;62601;51.044;13.788;2023-11-19T12:26:54;9.82;;;1.67;;
74245;SDS011;62601;51.044;13.788;2023-11-19T12:29:14;6.35;;;1.50;;
74245;SDS011;62601;51.044;13.788;2023-11-19T12:31:34;4.40;;;1.45;;
74245;SDS011;62601;51.044;13.788;2023-11-19T12:33:54;3.40;;;1.20;;
74245;SDS011;62601;51.044;13.788;2023-11-19T12:36:15;3.88;;;1.38;;
74245;SDS011;62601;51.044;13.788;2023-11-19T12:38:35;6.22;;;1.23;;
74245;SDS011;62601;51.044;13.788;2023-11-19T12:41:05;5.93;;;1.95;;
74245;SDS011;62601;51.044;13.788;2023-11-19T12:43:25;12.70;;;2.50;;
74245;SDS011;62601;51.044;13.788;2023-11-19T12:45:45;8.18;;;1.67;;
74245;SDS011;62601;51.044;13.788;2023-11-19T12:48:09;5.93;;;1.45;;
74245;SDS011;62601;51.044;13.788;2023-11-19T12:50:29;4.20;;;1.38;;
74245;SDS011;62601;51.044;13.788;2023-11-19T12:52:56;4.75;;;1.77;;
74245;SDS011;62601;51.044;13.788;2023-11-19T12:55:26;3.90;;;1.40;;
74245;SDS011;62601;51.044;13.788;2023-11-19T12:57:46;10.18;;;2.28;;
74245;SDS011;62601;51.044;13.788;2023-11-19T13:00:06;7.05;;;2.50;;
74245;SDS011;62601;51.044;13.788;2023-11-19T13:02:46;10.43;;;5.13;;
74245;SDS011;62601;51.044;13.788;2023-11-19T13:05:22;7.63;;;1.90;;
74245;SDS011;62601;51.044;13.788;2023-11-19T13:07:42;5.28;;;1.65;;
74245;SDS011;62601;51.044;13.788;2023-11-19T13:10:03;8.70;;;1.70;;
74245;SDS011;62601;51.044;13.788;2023-11-19T13:12:23;6.10;;;1.67;;
74245;SDS011;62601;51.044;13.788;2023-11-19T13:14:43;4.40;;;1.60;;
74245;SDS011;62601;51.044;13.788;2023-11-19T13:17:03;9.13;;;2.40;;
74245;SDS011;62601;51.044;13.788;2023-11-19T13:19:23;8.60;;;2.45;;
74245;SDS011;62601;51.044;13.788;2023-11-19T13:21:43;4.60;;;1.70;;
74245;SDS011;62601;51.044;13.788;2023-11-19T13:24:03;7.43;;;1.77;;
74245;SDS011;62601;51.044;13.788;2023-11-19T13:26:24;6.55;;;1.70;;
74245;SDS011;62601;51.044;13.788;2023-11-19T13:28:44;2.95;;;1.30;;
74245;SDS011;62601;51.044;13.788;2023-11-19T13:31:04;3.72;;;1.52;;
74245;SDS011;62601;51.044;13.788;2023-11-19T13:33:24;8.07;;;2.22;;
74245;SDS011;62601;51.044;13.788;2023-11-19T13:35:44;5.40;;;1.80;;
74245;SDS011;62601;51.044;13.788;2023-11-19T13:38:04;9.25;;;1.80;;
74245;SDS011;62601;51.044;13.788;2023-11-19T13:40:24;12.40;;;2.22;;
74245;SDS011;62601;51.044;13.788;2023-11-19T13:42:44;9.10;;;1.85;;
74245;SDS011;62601;51.044;13.788;2023-11-19T13:45:05;5.25;;;1.90;;
74245;SDS011;62601;51.044;13.788;2023-11-19T13:47:25;7.88;;;1.85;;
74245;SDS011;62601;51.044;13.788;2023-11-19T13:49:45;5.95;;;1.95;;
74245;SDS011;62601;51.044;13.788;2023-11-19T13:52:05;5.93;;;2.17;;
74245;SDS011;62601;51.044;13.788;2023-11-19T13:54:25;5.90;;;2.25;;
74245;SDS011;62601;51.044;13.788;2023-11-19T13:56:45;5.10;;;1.85;;
74245;SDS011;62601;51.044;13.788;2023-11-19T13:59:06;11.57;;;1.83;;
74245;SDS011;62601;51.044;13.788;2023-11-19T14:01:26;7.15;;;1.90;;
74245;SDS011;62601;51.044;13.788;2023-11-19T14:03:46;11.43;;;1.88;;
74245;SDS011;62601;51.044;13.788;2023-11-19T14:06:06;5.93;;;1.60;;
74245;SDS011;62601;51.044;13.788;2023-11-19T14:08:26;6.18;;;1.98;;